This is the latest recevied weather packets stored in our database for station/object ENMS. If no packets are shown the sender has not sent any weather packets the latest 10 day(s).
| Time | Temp. | Humidity | Pressure | Rain* | Wind** | Luminosity | Snow |
|---|---|---|---|---|---|---|---|
| 1788462186 | 11.67° C | 93% | 1002 hPa | - | - | - | - |
| 1788460387 | 11.67° C | 93% | 1002 hPa | - | - | - | - |
| 1788458588 | 12.78° C | 87% | 1002 hPa | - | - | - | - |
| 1788456788 | 13.89° C | 82% | 1002 hPa | - | - | - | - |
| 1788454987 | 13.89° C | 82% | 1002 hPa | - | - | - | - |
| 1788453187 | 13.89° C | 82% | 1002 hPa | - | - | - | - |
| 1788451387 | 13.89° C | 82% | 1002 hPa | - | - | - | - |
| 1788449587 | 15° C | 72% | 1001 hPa | - | - | - | - |
| 1788447787 | 15.56° C | 72% | 1001 hPa | - | - | - | - |
| 1788445987 | 15° C | 72% | 1001 hPa | - | - | - | - |
| 1788444187 | 15° C | 76% | 1001 hPa | - | - | - | - |
| 1788442388 | 13.89° C | 82% | 1002 hPa | - | - | - | - |
| 1788440587 | 13.89° C | 76% | 1001 hPa | - | - | - | - |
| 1788438787 | 13.89° C | 76% | 1001 hPa | - | - | - | - |
| 1788435187 | 13.89° C | 76% | 1001 hPa | - | - | - | - |
| 1788433387 | 12.78° C | 81% | 1001 hPa | - | - | - | - |
| 1788431589 | 12.78° C | 81% | 1001 hPa | - | - | - | - |
| 1788429788 | 12.78° C | 81% | 1001 hPa | - | - | - | - |
| 1788427987 | 11.67° C | 87% | 1001 hPa | - | - | - | - |
| 1788426188 | 11.67° C | 93% | 1000 hPa | - | - | - | - |
| 1788424387 | 11.67° C | 87% | 1000 hPa | - | - | - | - |
| 1788422587 | 10.56° C | 93% | 1000 hPa | - | - | - | - |
| 1788420786 | 10.56° C | 93% | 1000 hPa | - | - | - | - |
| 1788418986 | 10.56° C | 93% | 1000 hPa | - | - | - | - |
| 1788417187 | 10.56° C | 93% | 1000 hPa | - | - | - | - |
* Rain since midnight (hover to see other rain measurements)
** Current wind speed in m/s (hover to see current wind gust speed)